sensor_id;sensor_type;location;lat;lon;timestamp;pressure;altitude;pressure_sealevel;temperature
6498;BMP280;3282;48.358;10.958;2022-07-29T00:02:04;96219.41;;;20.76
6498;BMP280;3282;48.358;10.958;2022-07-29T00:04:30;96200.88;;;20.70
6498;BMP280;3282;48.358;10.958;2022-07-29T00:06:57;96186.75;;;20.63
6498;BMP280;3282;48.358;10.958;2022-07-29T00:09:23;96173.31;;;20.55
6498;BMP280;3282;48.358;10.958;2022-07-29T00:11:50;96172.56;;;20.55
6498;BMP280;3282;48.358;10.958;2022-07-29T00:14:16;96176.03;;;20.55
6498;BMP280;3282;48.358;10.958;2022-07-29T00:16:43;96164.41;;;20.55
6498;BMP280;3282;48.358;10.958;2022-07-29T00:19:10;96165.41;;;20.61
6498;BMP280;3282;48.358;10.958;2022-07-29T00:21:37;96129.00;;;20.59
6498;BMP280;3282;48.358;10.958;2022-07-29T00:24:04;96123.66;;;20.68
6498;BMP280;3282;48.358;10.958;2022-07-29T00:26:31;96117.69;;;20.73
6498;BMP280;3282;48.358;10.958;2022-07-29T00:28:59;96120.84;;;20.72
6498;BMP280;3282;48.358;10.958;2022-07-29T00:31:46;96134.09;;;20.69
6498;BMP280;3282;48.358;10.958;2022-07-29T00:34:13;96140.75;;;20.68
6498;BMP280;3282;48.358;10.958;2022-07-29T00:36:58;96145.50;;;20.64
6498;BMP280;3282;48.358;10.958;2022-07-29T00:39:24;96135.91;;;20.60
6498;BMP280;3282;48.358;10.958;2022-07-29T00:41:53;96130.69;;;20.52
6498;BMP280;3282;48.358;10.958;2022-07-29T00:44:20;96145.81;;;20.53
6498;BMP280;3282;48.358;10.958;2022-07-29T00:46:46;96143.97;;;20.50
6498;BMP280;3282;48.358;10.958;2022-07-29T00:49:13;96138.72;;;20.43
6498;BMP280;3282;48.358;10.958;2022-07-29T00:51:40;96142.63;;;20.42
6498;BMP280;3282;48.358;10.958;2022-07-29T00:54:07;96151.50;;;20.29
6498;BMP280;3282;48.358;10.958;2022-07-29T00:56:33;96142.34;;;20.23
6498;BMP280;3282;48.358;10.958;2022-07-29T00:59:00;96146.25;;;20.22
6498;BMP280;3282;48.358;10.958;2022-07-29T01:01:26;96138.88;;;20.23
6498;BMP280;3282;48.358;10.958;2022-07-29T01:03:54;96146.59;;;20.24
6498;BMP280;3282;48.358;10.958;2022-07-29T01:06:21;96137.75;;;20.20
6498;BMP280;3282;48.358;10.958;2022-07-29T01:08:49;96147.34;;;20.25
6498;BMP280;3282;48.358;10.958;2022-07-29T01:11:15;96141.94;;;20.25
6498;BMP280;3282;48.358;10.958;2022-07-29T01:13:44;96136.91;;;20.23
6498;BMP280;3282;48.358;10.958;2022-07-29T01:16:25;96137.34;;;20.22
6498;BMP280;3282;48.358;10.958;2022-07-29T01:19:00;96135.03;;;20.20
6498;BMP280;3282;48.358;10.958;2022-07-29T01:29:59;96125.56;;;20.12
6498;BMP280;3282;48.358;10.958;2022-07-29T01:32:33;96117.44;;;20.12
6498;BMP280;3282;48.358;10.958;2022-07-29T01:35:10;96106.25;;;20.10
6498;BMP280;3282;48.358;10.958;2022-07-29T01:40:47;96083.75;;;20.09
6498;BMP280;3282;48.358;10.958;2022-07-29T01:43:18;96085.81;;;20.18
6498;BMP280;3282;48.358;10.958;2022-07-29T01:46:25;96094.41;;;20.16
6498;BMP280;3282;48.358;10.958;2022-07-29T01:48:58;96092.97;;;20.12
6498;BMP280;3282;48.358;10.958;2022-07-29T01:51:33;96106.91;;;20.14
6498;BMP280;3282;48.358;10.958;2022-07-29T01:54:16;96097.63;;;20.11
6498;BMP280;3282;48.358;10.958;2022-07-29T01:56:47;96108.59;;;20.08
6498;BMP280;3282;48.358;10.958;2022-07-29T01:59:15;96102.16;;;20.01
6498;BMP280;3282;48.358;10.958;2022-07-29T02:01:45;96106.41;;;20.02
6498;BMP280;3282;48.358;10.958;2022-07-29T02:04:15;96096.72;;;20.01
6498;BMP280;3282;48.358;10.958;2022-07-29T02:06:58;96088.56;;;20.01
6498;BMP280;3282;48.358;10.958;2022-07-29T02:09:28;96097.84;;;20.04
6498;BMP280;3282;48.358;10.958;2022-07-29T02:11:57;96091.63;;;20.03
6498;BMP280;3282;48.358;10.958;2022-07-29T02:14:27;96086.31;;;20.00
6498;BMP280;3282;48.358;10.958;2022-07-29T02:16:55;96086.09;;;20.07
6498;BMP280;3282;48.358;10.958;2022-07-29T02:19:25;96072.28;;;20.01
6498;BMP280;3282;48.358;10.958;2022-07-29T02:21:54;96080.69;;;20.07
6498;BMP280;3282;48.358;10.958;2022-07-29T02:24:23;96069.56;;;20.01
6498;BMP280;3282;48.358;10.958;2022-07-29T02:26:53;96079.94;;;20.07
6498;BMP280;3282;48.358;10.958;2022-07-29T02:29:21;96080.78;;;20.03
6498;BMP280;3282;48.358;10.958;2022-07-29T02:31:50;96073.94;;;19.99
6498;BMP280;3282;48.358;10.958;2022-07-29T02:34:19;96073.66;;;19.93
6498;BMP280;3282;48.358;10.958;2022-07-29T02:36:48;96076.59;;;19.86
6498;BMP280;3282;48.358;10.958;2022-07-29T02:39:15;96068.88;;;19.84
6498;BMP280;3282;48.358;10.958;2022-07-29T02:41:55;96067.75;;;19.82
6498;BMP280;3282;48.358;10.958;2022-07-29T02:44:24;96068.53;;;19.82
6498;BMP280;3282;48.358;10.958;2022-07-29T02:47:20;96072.75;;;19.83
6498;BMP280;3282;48.358;10.958;2022-07-29T02:50:02;96057.84;;;19.75
6498;BMP280;3282;48.358;10.958;2022-07-29T02:55:06;96067.41;;;19.80
6498;BMP280;3282;48.358;10.958;2022-07-29T03:00:23;96074.91;;;19.75
6498;BMP280;3282;48.358;10.958;2022-07-29T03:02:55;96072.59;;;19.74
6498;BMP280;3282;48.358;10.958;2022-07-29T03:05:22;96081.50;;;19.74
6498;BMP280;3282;48.358;10.958;2022-07-29T03:07:53;96083.06;;;19.75
6498;BMP280;3282;48.358;10.958;2022-07-29T03:10:21;96084.22;;;19.74
6498;BMP280;3282;48.358;10.958;2022-07-29T03:12:48;96088.97;;;19.70
6498;BMP280;3282;48.358;10.958;2022-07-29T03:15:15;96092.72;;;19.76
6498;BMP280;3282;48.358;10.958;2022-07-29T03:17:42;96098.16;;;19.76
6498;BMP280;3282;48.358;10.958;2022-07-29T03:20:10;96093.91;;;19.75
6498;BMP280;3282;48.358;10.958;2022-07-29T03:22:41;96098.66;;;19.71
6498;BMP280;3282;48.358;10.958;2022-07-29T03:25:15;96104.97;;;19.68
6498;BMP280;3282;48.358;10.958;2022-07-29T03:27:42;96103.75;;;19.69
6498;BMP280;3282;48.358;10.958;2022-07-29T03:30:10;96100.69;;;19.67
6498;BMP280;3282;48.358;10.958;2022-07-29T03:32:42;96101.13;;;19.66
6498;BMP280;3282;48.358;10.958;2022-07-29T03:35:10;96104.28;;;19.64
6498;BMP280;3282;48.358;10.958;2022-07-29T03:37:37;96097.06;;;19.57
6498;BMP280;3282;48.358;10.958;2022-07-29T03:40:07;96103.16;;;19.61
6498;BMP280;3282;48.358;10.958;2022-07-29T03:42:36;96100.84;;;19.60
6498;BMP280;3282;48.358;10.958;2022-07-29T03:45:07;96104.78;;;19.59
6498;BMP280;3282;48.358;10.958;2022-07-29T03:47:35;96099.78;;;19.57
6498;BMP280;3282;48.358;10.958;2022-07-29T03:50:17;96110.72;;;19.54
6498;BMP280;3282;48.358;10.958;2022-07-29T03:52:46;96113.09;;;19.52
6498;BMP280;3282;48.358;10.958;2022-07-29T03:55:14;96110.38;;;19.52
6498;BMP280;3282;48.358;10.958;2022-07-29T03:57:41;96108.50;;;19.48
6498;BMP280;3282;48.358;10.958;2022-07-29T04:00:08;96110.09;;;19.46
6498;BMP280;3282;48.358;10.958;2022-07-29T04:02:36;96111.72;;;19.43
6498;BMP280;3282;48.358;10.958;2022-07-29T04:05:04;96106.53;;;19.32
6498;BMP280;3282;48.358;10.958;2022-07-29T04:07:30;96109.00;;;19.27
6498;BMP280;3282;48.358;10.958;2022-07-29T04:09:57;96114.94;;;19.21
6498;BMP280;3282;48.358;10.958;2022-07-29T04:12:24;96113.84;;;19.19
6498;BMP280;3282;48.358;10.958;2022-07-29T04:14:50;96117.78;;;19.14
6498;BMP280;3282;48.358;10.958;2022-07-29T04:17:17;96112.88;;;19.09
6498;BMP280;3282;48.358;10.958;2022-07-29T04:19:43;96116.03;;;19.07
6498;BMP280;3282;48.358;10.958;2022-07-29T04:22:10;96119.56;;;19.04
6498;BMP280;3282;48.358;10.958;2022-07-29T04:24:37;96117.22;;;19.06
6498;BMP280;3282;48.358;10.958;2022-07-29T04:27:03;96123.72;;;19.09
6498;BMP280;3282;48.358;10.958;2022-07-29T04:29:30;96120.16;;;19.12
6498;BMP280;3282;48.358;10.958;2022-07-29T04:31:56;96134.06;;;19.14
6498;BMP280;3282;48.358;10.958;2022-07-29T04:34:23;96135.41;;;19.06
6498;BMP280;3282;48.358;10.958;2022-07-29T04:36:53;96136.66;;;19.01
6498;BMP280;3282;48.358;10.958;2022-07-29T04:39:20;96133.56;;;19.03
6498;BMP280;3282;48.358;10.958;2022-07-29T04:41:49;96141.63;;;19.06
6498;BMP280;3282;48.358;10.958;2022-07-29T04:44:18;96139.28;;;19.05
6498;BMP280;3282;48.358;10.958;2022-07-29T04:46:45;96146.25;;;19.06
6498;BMP280;3282;48.358;10.958;2022-07-29T04:49:11;96143.38;;;19.13
6498;BMP280;3282;48.358;10.958;2022-07-29T04:51:39;96147.81;;;19.23
6498;BMP280;3282;48.358;10.958;2022-07-29T04:54:06;96140.03;;;19.26
6498;BMP280;3282;48.358;10.958;2022-07-29T04:56:32;96150.19;;;19.21
6498;BMP280;3282;48.358;10.958;2022-07-29T04:58:59;96160.03;;;19.32
6498;BMP280;3282;48.358;10.958;2022-07-29T05:01:25;96156.00;;;19.40
6498;BMP280;3282;48.358;10.958;2022-07-29T05:03:52;96170.72;;;19.56
6498;BMP280;3282;48.358;10.958;2022-07-29T05:06:25;96161.59;;;19.66
6498;BMP280;3282;48.358;10.958;2022-07-29T05:08:51;96151.25;;;19.77
6498;BMP280;3282;48.358;10.958;2022-07-29T05:11:18;96165.38;;;20.02
6498;BMP280;3282;48.358;10.958;2022-07-29T05:13:49;96160.00;;;20.32
6498;BMP280;3282;48.358;10.958;2022-07-29T05:16:16;96165.31;;;20.65
6498;BMP280;3282;48.358;10.958;2022-07-29T05:18:42;96163.19;;;20.99
6498;BMP280;3282;48.358;10.958;2022-07-29T05:21:09;96169.94;;;21.20
6498;BMP280;3282;48.358;10.958;2022-07-29T05:23:36;96167.84;;;21.63
6498;BMP280;3282;48.358;10.958;2022-07-29T05:26:02;96171.00;;;22.10
6498;BMP280;3282;48.358;10.958;2022-07-29T05:28:33;96166.50;;;22.38
6498;BMP280;3282;48.358;10.958;2022-07-29T05:31:00;96167.06;;;22.78
6498;BMP280;3282;48.358;10.958;2022-07-29T05:33:27;96170.84;;;23.12
6498;BMP280;3282;48.358;10.958;2022-07-29T05:36:03;96166.88;;;23.63
6498;BMP280;3282;48.358;10.958;2022-07-29T05:38:32;96167.97;;;23.94
6498;BMP280;3282;48.358;10.958;2022-07-29T05:40:59;96161.75;;;24.12
6498;BMP280;3282;48.358;10.958;2022-07-29T05:43:29;96168.25;;;24.33
6498;BMP280;3282;48.358;10.958;2022-07-29T05:45:56;96176.16;;;24.22
6498;BMP280;3282;48.358;10.958;2022-07-29T05:48:23;96170.69;;;24.22
6498;BMP280;3282;48.358;10.958;2022-07-29T05:50:50;96171.50;;;24.66
6498;BMP280;3282;48.358;10.958;2022-07-29T05:53:17;96171.34;;;25.12
6498;BMP280;3282;48.358;10.958;2022-07-29T05:55:46;96165.75;;;25.55
6498;BMP280;3282;48.358;10.958;2022-07-29T05:58:12;96158.09;;;25.84
6498;BMP280;3282;48.358;10.958;2022-07-29T06:00:39;96159.19;;;26.17
6498;BMP280;3282;48.358;10.958;2022-07-29T06:03:06;96153.31;;;26.39
6498;BMP280;3282;48.358;10.958;2022-07-29T06:05:32;96152.63;;;26.74
6498;BMP280;3282;48.358;10.958;2022-07-29T06:07:59;96154.25;;;27.02
6498;BMP280;3282;48.358;10.958;2022-07-29T06:10:25;96151.19;;;27.15
6498;BMP280;3282;48.358;10.958;2022-07-29T06:12:53;96153.78;;;27.24
6498;BMP280;3282;48.358;10.958;2022-07-29T06:15:19;96167.94;;;27.38
6498;BMP280;3282;48.358;10.958;2022-07-29T06:17:46;96172.47;;;27.61
6498;BMP280;3282;48.358;10.958;2022-07-29T06:20:30;96172.75;;;27.90
6498;BMP280;3282;48.358;10.958;2022-07-29T06:22:58;96175.75;;;28.13
6498;BMP280;3282;48.358;10.958;2022-07-29T06:25:26;96181.75;;;28.43
6498;BMP280;3282;48.358;10.958;2022-07-29T06:27:55;96177.31;;;28.52
6498;BMP280;3282;48.358;10.958;2022-07-29T06:30:22;96175.72;;;28.77
6498;BMP280;3282;48.358;10.958;2022-07-29T06:32:49;96180.81;;;28.90
6498;BMP280;3282;48.358;10.958;2022-07-29T06:35:15;96177.34;;;28.95
6498;BMP280;3282;48.358;10.958;2022-07-29T06:38:03;96178.88;;;29.02
6498;BMP280;3282;48.358;10.958;2022-07-29T06:40:41;96181.41;;;29.11
6498;BMP280;3282;48.358;10.958;2022-07-29T06:43:49;96176.94;;;29.14
6498;BMP280;3282;48.358;10.958;2022-07-29T06:46:21;96177.72;;;29.20
6498;BMP280;3282;48.358;10.958;2022-07-29T06:48:48;96181.81;;;29.36
6498;BMP280;3282;48.358;10.958;2022-07-29T06:51:15;96180.53;;;29.37
6498;BMP280;3282;48.358;10.958;2022-07-29T06:53:50;96192.84;;;29.53
6498;BMP280;3282;48.358;10.958;2022-07-29T06:56:32;96203.66;;;29.57
6498;BMP280;3282;48.358;10.958;2022-07-29T06:59:09;96195.94;;;29.67
6498;BMP280;3282;48.358;10.958;2022-07-29T07:01:40;96195.69;;;29.70
6498;BMP280;3282;48.358;10.958;2022-07-29T07:04:07;96198.47;;;29.76
6498;BMP280;3282;48.358;10.958;2022-07-29T07:06:37;96198.19;;;29.80
6498;BMP280;3282;48.358;10.958;2022-07-29T07:09:04;96204.97;;;29.84
6498;BMP280;3282;48.358;10.958;2022-07-29T07:11:31;96203.22;;;29.81
6498;BMP280;3282;48.358;10.958;2022-07-29T07:13:57;96186.66;;;29.76
6498;BMP280;3282;48.358;10.958;2022-07-29T07:16:29;96205.50;;;29.88
6498;BMP280;3282;48.358;10.958;2022-07-29T07:18:56;96199.25;;;29.94
6498;BMP280;3282;48.358;10.958;2022-07-29T07:21:22;96196.75;;;30.01
6498;BMP280;3282;48.358;10.958;2022-07-29T07:23:49;96201.78;;;30.14
6498;BMP280;3282;48.358;10.958;2022-07-29T07:26:15;96203.00;;;29.91
6498;BMP280;3282;48.358;10.958;2022-07-29T07:28:42;96199.72;;;29.69
6498;BMP280;3282;48.358;10.958;2022-07-29T07:31:10;96205.09;;;29.41
6498;BMP280;3282;48.358;10.958;2022-07-29T07:33:36;96199.53;;;29.24
6498;BMP280;3282;48.358;10.958;2022-07-29T07:36:03;96193.72;;;29.16
6498;BMP280;3282;48.358;10.958;2022-07-29T07:38:30;96180.69;;;29.11
6498;BMP280;3282;48.358;10.958;2022-07-29T07:40:56;96198.25;;;29.25
6498;BMP280;3282;48.358;10.958;2022-07-29T07:43:23;96187.31;;;29.36
6498;BMP280;3282;48.358;10.958;2022-07-29T07:45:49;96199.31;;;29.39
6498;BMP280;3282;48.358;10.958;2022-07-29T07:48:16;96193.78;;;29.27
6498;BMP280;3282;48.358;10.958;2022-07-29T07:50:43;96198.72;;;29.12
6498;BMP280;3282;48.358;10.958;2022-07-29T07:53:10;96192.72;;;29.19
6498;BMP280;3282;48.358;10.958;2022-07-29T07:55:41;96207.81;;;29.24
6498;BMP280;3282;48.358;10.958;2022-07-29T07:58:27;96204.25;;;29.17
6498;BMP280;3282;48.358;10.958;2022-07-29T08:00:54;96200.56;;;29.32
6498;BMP280;3282;48.358;10.958;2022-07-29T08:03:21;96198.59;;;29.50
6498;BMP280;3282;48.358;10.958;2022-07-29T08:05:47;96203.16;;;29.53
6498;BMP280;3282;48.358;10.958;2022-07-29T08:08:14;96198.38;;;29.48
6498;BMP280;3282;48.358;10.958;2022-07-29T08:10:41;96199.31;;;29.27
6498;BMP280;3282;48.358;10.958;2022-07-29T08:13:21;96192.63;;;28.96
6498;BMP280;3282;48.358;10.958;2022-07-29T08:15:49;96188.41;;;28.63
6498;BMP280;3282;48.358;10.958;2022-07-29T08:18:25;96196.34;;;28.23
6498;BMP280;3282;48.358;10.958;2022-07-29T08:20:52;96196.53;;;27.93
6498;BMP280;3282;48.358;10.958;2022-07-29T08:23:18;96197.53;;;27.69
6498;BMP280;3282;48.358;10.958;2022-07-29T08:25:45;96206.66;;;27.60
6498;BMP280;3282;48.358;10.958;2022-07-29T08:28:18;96208.03;;;27.50
6498;BMP280;3282;48.358;10.958;2022-07-29T08:30:45;96205.03;;;27.48
6498;BMP280;3282;48.358;10.958;2022-07-29T08:33:12;96210.66;;;27.39
6498;BMP280;3282;48.358;10.958;2022-07-29T08:35:39;96206.59;;;27.34
6498;BMP280;3282;48.358;10.958;2022-07-29T08:38:09;96207.84;;;27.33
6498;BMP280;3282;48.358;10.958;2022-07-29T08:40:36;96209.94;;;27.23
6498;BMP280;3282;48.358;10.958;2022-07-29T08:43:07;96218.50;;;27.10
6498;BMP280;3282;48.358;10.958;2022-07-29T08:45:45;96215.81;;;26.95
6498;BMP280;3282;48.358;10.958;2022-07-29T08:48:18;96218.75;;;26.91
6498;BMP280;3282;48.358;10.958;2022-07-29T08:50:48;96213.63;;;26.84
6498;BMP280;3282;48.358;10.958;2022-07-29T08:53:16;96219.59;;;26.83
6498;BMP280;3282;48.358;10.958;2022-07-29T08:55:45;96220.09;;;26.81
6498;BMP280;3282;48.358;10.958;2022-07-29T08:58:13;96217.91;;;26.85
6498;BMP280;3282;48.358;10.958;2022-07-29T09:00:46;96221.28;;;26.95
6498;BMP280;3282;48.358;10.958;2022-07-29T09:03:16;96218.91;;;27.03
6498;BMP280;3282;48.358;10.958;2022-07-29T09:05:47;96218.69;;;27.06
6498;BMP280;3282;48.358;10.958;2022-07-29T09:08:15;96204.69;;;27.04
6498;BMP280;3282;48.358;10.958;2022-07-29T09:10:44;96216.91;;;27.03
6498;BMP280;3282;48.358;10.958;2022-07-29T09:13:10;96213.78;;;27.11
6498;BMP280;3282;48.358;10.958;2022-07-29T09:15:37;96219.50;;;27.28
6498;BMP280;3282;48.358;10.958;2022-07-29T09:18:04;96213.28;;;27.48
6498;BMP280;3282;48.358;10.958;2022-07-29T09:20:30;96222.72;;;27.62
6498;BMP280;3282;48.358;10.958;2022-07-29T09:23:15;96221.09;;;27.76
6498;BMP280;3282;48.358;10.958;2022-07-29T09:25:50;96222.09;;;27.78
6498;BMP280;3282;48.358;10.958;2022-07-29T09:28:17;96222.34;;;27.75
6498;BMP280;3282;48.358;10.958;2022-07-29T09:30:56;96211.53;;;27.92
6498;BMP280;3282;48.358;10.958;2022-07-29T09:33:23;96216.19;;;28.33
6498;BMP280;3282;48.358;10.958;2022-07-29T09:36:04;96217.25;;;28.41
6498;BMP280;3282;48.358;10.958;2022-07-29T09:38:32;96210.19;;;28.34
6498;BMP280;3282;48.358;10.958;2022-07-29T09:41:01;96209.22;;;28.38
6498;BMP280;3282;48.358;10.958;2022-07-29T09:43:32;96201.97;;;28.72
6498;BMP280;3282;48.358;10.958;2022-07-29T09:46:25;96199.22;;;29.16
6498;BMP280;3282;48.358;10.958;2022-07-29T09:49:12;96204.66;;;29.54
6498;BMP280;3282;48.358;10.958;2022-07-29T09:51:39;96200.00;;;29.88
6498;BMP280;3282;48.358;10.958;2022-07-29T09:54:25;96204.31;;;30.24
6498;BMP280;3282;48.358;10.958;2022-07-29T09:56:53;96209.81;;;30.47
6498;BMP280;3282;48.358;10.958;2022-07-29T09:59:21;96212.06;;;30.65
6498;BMP280;3282;48.358;10.958;2022-07-29T10:01:50;96197.41;;;30.93
6498;BMP280;3282;48.358;10.958;2022-07-29T10:04:17;96202.88;;;31.27
6498;BMP280;3282;48.358;10.958;2022-07-29T10:07:02;96186.63;;;31.54
6498;BMP280;3282;48.358;10.958;2022-07-29T10:09:32;96193.75;;;31.80
6498;BMP280;3282;48.358;10.958;2022-07-29T10:12:06;96191.09;;;31.99
6498;BMP280;3282;48.358;10.958;2022-07-29T10:14:33;96193.94;;;32.24
6498;BMP280;3282;48.358;10.958;2022-07-29T10:17:00;96196.28;;;32.14
6498;BMP280;3282;48.358;10.958;2022-07-29T10:19:31;96189.09;;;32.00
6498;BMP280;3282;48.358;10.958;2022-07-29T10:21:59;96186.28;;;32.06
6498;BMP280;3282;48.358;10.958;2022-07-29T10:24:28;96187.03;;;32.06
6498;BMP280;3282;48.358;10.958;2022-07-29T10:26:56;96186.34;;;32.00
6498;BMP280;3282;48.358;10.958;2022-07-29T10:29:23;96180.56;;;31.62
6498;BMP280;3282;48.358;10.958;2022-07-29T10:32:02;96198.53;;;31.38
6498;BMP280;3282;48.358;10.958;2022-07-29T10:40:36;96189.75;;;31.28
6498;BMP280;3282;48.358;10.958;2022-07-29T10:43:29;96185.09;;;31.59
6498;BMP280;3282;48.358;10.958;2022-07-29T10:45:59;96186.09;;;31.62
6498;BMP280;3282;48.358;10.958;2022-07-29T10:48:26;96190.00;;;31.36
6498;BMP280;3282;48.358;10.958;2022-07-29T10:53:23;96174.06;;;31.53
6498;BMP280;3282;48.358;10.958;2022-07-29T10:55:51;96173.69;;;31.74
6498;BMP280;3282;48.358;10.958;2022-07-29T10:58:22;96172.63;;;32.13
6498;BMP280;3282;48.358;10.958;2022-07-29T11:00:53;96168.84;;;32.41
6498;BMP280;3282;48.358;10.958;2022-07-29T11:03:42;96163.63;;;32.38
6498;BMP280;3282;48.358;10.958;2022-07-29T11:06:16;96167.66;;;32.62
6498;BMP280;3282;48.358;10.958;2022-07-29T11:09:17;96165.63;;;32.62
6498;BMP280;3282;48.358;10.958;2022-07-29T11:12:01;96163.03;;;32.70
6498;BMP280;3282;48.358;10.958;2022-07-29T11:14:57;96165.34;;;32.91
6498;BMP280;3282;48.358;10.958;2022-07-29T11:17:25;96161.19;;;33.17
6498;BMP280;3282;48.358;10.958;2022-07-29T11:22:57;96150.31;;;33.57
6498;BMP280;3282;48.358;10.958;2022-07-29T11:25:24;96144.31;;;33.72
6498;BMP280;3282;48.358;10.958;2022-07-29T11:28:17;96144.34;;;33.85
6498;BMP280;3282;48.358;10.958;2022-07-29T11:30:52;96152.16;;;34.00
6498;BMP280;3282;48.358;10.958;2022-07-29T11:33:32;96143.03;;;33.86
6498;BMP280;3282;48.358;10.958;2022-07-29T11:36:18;96156.28;;;33.94
6498;BMP280;3282;48.358;10.958;2022-07-29T11:39:26;96147.63;;;33.84
6498;BMP280;3282;48.358;10.958;2022-07-29T11:47:56;96149.03;;;33.25
6498;BMP280;3282;48.358;10.958;2022-07-29T11:50:44;96147.13;;;33.34
6498;BMP280;3282;48.358;10.958;2022-07-29T11:53:13;96150.84;;;33.55
6498;BMP280;3282;48.358;10.958;2022-07-29T11:55:41;96149.94;;;33.66
6498;BMP280;3282;48.358;10.958;2022-07-29T11:58:22;96152.19;;;33.49
6498;BMP280;3282;48.358;10.958;2022-07-29T12:00:52;96154.56;;;33.25
6498;BMP280;3282;48.358;10.958;2022-07-29T12:03:28;96158.91;;;33.02
6498;BMP280;3282;48.358;10.958;2022-07-29T12:06:11;96154.59;;;33.00
6498;BMP280;3282;48.358;10.958;2022-07-29T12:08:42;96145.09;;;33.15
6498;BMP280;3282;48.358;10.958;2022-07-29T12:11:17;96139.78;;;33.36
6498;BMP280;3282;48.358;10.958;2022-07-29T12:13:48;96139.16;;;33.24
6498;BMP280;3282;48.358;10.958;2022-07-29T12:16:15;96142.91;;;33.08
6498;BMP280;3282;48.358;10.958;2022-07-29T12:18:57;96144.78;;;32.55
6498;BMP280;3282;48.358;10.958;2022-07-29T12:21:25;96135.94;;;32.38
6498;BMP280;3282;48.358;10.958;2022-07-29T12:23:55;96132.53;;;32.51
6498;BMP280;3282;48.358;10.958;2022-07-29T12:26:30;96122.94;;;32.52
6498;BMP280;3282;48.358;10.958;2022-07-29T12:28:59;96122.75;;;32.44
6498;BMP280;3282;48.358;10.958;2022-07-29T12:31:28;96126.88;;;32.37
6498;BMP280;3282;48.358;10.958;2022-07-29T12:34:11;96127.66;;;32.07
6498;BMP280;3282;48.358;10.958;2022-07-29T12:36:38;96118.63;;;31.76
6498;BMP280;3282;48.358;10.958;2022-07-29T12:39:05;96115.97;;;31.59
6498;BMP280;3282;48.358;10.958;2022-07-29T12:41:31;96121.94;;;31.27
6498;BMP280;3282;48.358;10.958;2022-07-29T12:43:58;96118.00;;;31.11
6498;BMP280;3282;48.358;10.958;2022-07-29T12:46:25;96134.38;;;30.92
6498;BMP280;3282;48.358;10.958;2022-07-29T12:48:53;96136.72;;;30.70
6498;BMP280;3282;48.358;10.958;2022-07-29T12:51:32;96132.75;;;30.49
6498;BMP280;3282;48.358;10.958;2022-07-29T12:54:17;96134.06;;;30.30
6498;BMP280;3282;48.358;10.958;2022-07-29T12:56:44;96139.53;;;30.13
6498;BMP280;3282;48.358;10.958;2022-07-29T12:59:15;96128.53;;;29.91
6498;BMP280;3282;48.358;10.958;2022-07-29T13:01:42;96136.03;;;29.73
6498;BMP280;3282;48.358;10.958;2022-07-29T13:04:09;96145.03;;;29.56
6498;BMP280;3282;48.358;10.958;2022-07-29T13:06:41;96137.72;;;29.36
6498;BMP280;3282;48.358;10.958;2022-07-29T13:11:48;96156.75;;;28.85
6498;BMP280;3282;48.358;10.958;2022-07-29T13:14:36;96140.88;;;28.68
6498;BMP280;3282;48.358;10.958;2022-07-29T13:17:12;96140.34;;;28.58
6498;BMP280;3282;48.358;10.958;2022-07-29T13:20:25;96135.25;;;28.45
6498;BMP280;3282;48.358;10.958;2022-07-29T13:22:33;96141.63;;;28.31
6498;BMP280;3282;48.358;10.958;2022-07-29T13:25:01;96137.09;;;28.28
6498;BMP280;3282;48.358;10.958;2022-07-29T13:27:29;96139.81;;;28.22
6498;BMP280;3282;48.358;10.958;2022-07-29T13:29:59;96144.97;;;28.14
6498;BMP280;3282;48.358;10.958;2022-07-29T13:32:28;96145.97;;;28.11
6498;BMP280;3282;48.358;10.958;2022-07-29T13:34:56;96135.22;;;28.13
6498;BMP280;3282;48.358;10.958;2022-07-29T13:37:23;96134.97;;;28.11
6498;BMP280;3282;48.358;10.958;2022-07-29T13:39:49;96142.13;;;28.03
6498;BMP280;3282;48.358;10.958;2022-07-29T13:42:19;96145.88;;;28.00
6498;BMP280;3282;48.358;10.958;2022-07-29T13:44:45;96136.38;;;28.01
6498;BMP280;3282;48.358;10.958;2022-07-29T13:47:12;96139.38;;;28.03
6498;BMP280;3282;48.358;10.958;2022-07-29T13:49:39;96099.28;;;27.90
6498;BMP280;3282;48.358;10.958;2022-07-29T13:52:05;96118.72;;;28.13
6498;BMP280;3282;48.358;10.958;2022-07-29T13:54:34;96126.50;;;28.20
6498;BMP280;3282;48.358;10.958;2022-07-29T13:57:08;96128.16;;;28.33
6498;BMP280;3282;48.358;10.958;2022-07-29T13:59:37;96119.94;;;28.44
6498;BMP280;3282;48.358;10.958;2022-07-29T14:02:04;96121.28;;;28.55
6498;BMP280;3282;48.358;10.958;2022-07-29T14:04:32;96116.06;;;28.62
6498;BMP280;3282;48.358;10.958;2022-07-29T14:06:59;96109.28;;;28.58
6498;BMP280;3282;48.358;10.958;2022-07-29T14:09:29;96118.78;;;28.57
6498;BMP280;3282;48.358;10.958;2022-07-29T14:12:06;96116.28;;;28.59
6498;BMP280;3282;48.358;10.958;2022-07-29T14:14:33;96120.81;;;28.62
6498;BMP280;3282;48.358;10.958;2022-07-29T14:17:02;96117.63;;;28.69
6498;BMP280;3282;48.358;10.958;2022-07-29T14:19:29;96108.63;;;28.74
6498;BMP280;3282;48.358;10.958;2022-07-29T14:21:58;96104.97;;;28.89
6498;BMP280;3282;48.358;10.958;2022-07-29T14:24:25;96104.22;;;28.94
6498;BMP280;3282;48.358;10.958;2022-07-29T14:26:52;96106.19;;;28.94
6498;BMP280;3282;48.358;10.958;2022-07-29T14:29:18;96118.00;;;28.94
6498;BMP280;3282;48.358;10.958;2022-07-29T14:31:45;96106.50;;;28.96
6498;BMP280;3282;48.358;10.958;2022-07-29T14:34:12;96112.75;;;28.96
6498;BMP280;3282;48.358;10.958;2022-07-29T14:36:38;96114.81;;;29.07
6498;BMP280;3282;48.358;10.958;2022-07-29T14:39:05;96118.88;;;29.23
6498;BMP280;3282;48.358;10.958;2022-07-29T14:41:32;96119.41;;;29.33
6498;BMP280;3282;48.358;10.958;2022-07-29T14:43:59;96120.91;;;29.40
6498;BMP280;3282;48.358;10.958;2022-07-29T14:46:27;96124.69;;;29.48
6498;BMP280;3282;48.358;10.958;2022-07-29T14:48:54;96126.47;;;29.45
6498;BMP280;3282;48.358;10.958;2022-07-29T14:51:21;96125.69;;;29.39
6498;BMP280;3282;48.358;10.958;2022-07-29T14:53:47;96128.66;;;29.36
6498;BMP280;3282;48.358;10.958;2022-07-29T14:56:14;96131.19;;;29.34
6498;BMP280;3282;48.358;10.958;2022-07-29T14:59:00;96134.66;;;29.28
6498;BMP280;3282;48.358;10.958;2022-07-29T15:01:27;96130.88;;;29.26
6498;BMP280;3282;48.358;10.958;2022-07-29T15:03:53;96141.16;;;29.25
6498;BMP280;3282;48.358;10.958;2022-07-29T15:06:26;96134.16;;;29.24
6498;BMP280;3282;48.358;10.958;2022-07-29T15:08:52;96129.88;;;29.17
6498;BMP280;3282;48.358;10.958;2022-07-29T15:11:20;96143.13;;;29.19
6498;BMP280;3282;48.358;10.958;2022-07-29T15:13:46;96143.66;;;29.23
6498;BMP280;3282;48.358;10.958;2022-07-29T15:16:13;96143.13;;;29.19
6498;BMP280;3282;48.358;10.958;2022-07-29T15:18:39;96147.59;;;29.05